This is the latest recevied weather packets stored in our database for station/object GW1498. If no packets are shown the sender has not sent any weather packets the latest 10 day(s).
| Time | Temp. | Humidity | Pressure | Rain* | Wind** | Luminosity | Snow |
|---|---|---|---|---|---|---|---|
| 1777412748 | 18.89° C | 71% | 1015.9 hPa | 5.08 mm | - | - | - |
| 1777409148 | 18.89° C | 71% | 1015.9 hPa | 5.08 mm | - | - | - |
| 1777406074 | 16.11° C | 83% | 1016.9 hPa | 5.08 mm | - | - | - |
| 1777402990 | 15.56° C | 85% | 1017.2 hPa | 5.08 mm | - | - | - |
| 1777400331 | 15.56° C | 85% | 1017.2 hPa | 5.08 mm | - | - | - |
| 1777399601 | 16.11° C | 83% | 1016.9 hPa | 5.08 mm | - | - | - |
| 1777395648 | 16.11° C | 77% | 1016.9 hPa | 5.08 mm | - | - | - |
| 1777394924 | 16.67° C | 76% | 1016.5 hPa | 5.08 mm | - | - | - |
| 1777394204 | 16.67° C | 74% | 1016.5 hPa | 5.08 mm | - | - | - |
| 1777392593 | 16.67° C | 70% | 1016.2 hPa | 5.08 mm | - | - | - |
| 1777388992 | 15° C | 73% | 1016.2 hPa | 5.08 mm | - | - | - |
| 1777386831 | 13.89° C | 75% | 1016.2 hPa | 5.08 mm | - | - | - |
| 1777380158 | 11.11° C | 80% | 1015.2 hPa | 5.08 mm | - | - | - |
| 1777379789 | 11.11° C | 80% | 1015.2 hPa | 5.08 mm | - | - | - |
| 1777379443 | 11.11° C | 80% | 1015.2 hPa | 5.08 mm | - | - | - |
| 1777377100 | 10.56° C | 83% | 1015.2 hPa | 5.08 mm | - | - | - |
| 1777374051 | 10° C | 89% | 1014.2 hPa | 5.08 mm | - | - | - |
| 1777373323 | 10° C | 88% | 1015.2 hPa | 5.08 mm | - | - | - |
| 1777371886 | 8.89° C | 90% | 1016.2 hPa | 5.08 mm | - | - | - |
| 1777371509 | 8.89° C | 90% | 1016.2 hPa | 5.08 mm | - | - | - |
| 1777367892 | 10° C | 83% | 1015.5 hPa | 0.76 mm | - | - | - |
| 1777367377 | 10° C | 82% | 1016.2 hPa | 0.51 mm | - | - | - |
| 1777366464 | 10° C | 79% | 1015.5 hPa | 0.25 mm | - | - | - |
| 1777365750 | 10.56° C | 78% | 1015.5 hPa | 0 mm | - | - | - |
| 1777361787 | 12.78° C | 57% | 1017.9 hPa | 0 mm | - | - | - |
* Rain since midnight (hover to see other rain measurements)
** Current wind speed in m/s (hover to see current wind gust speed)